Time;durP1;ratioP1;P1;durP2;ratioP2;P2;SDS_P1;SDS_P2;PMS_P1;PMS_P2;Temp;Humidity;BMP_temperature;BMP_pressure;BME280_temperature;BME280_humidity;BME280_pressure;Samples;Min_cycle;Max_cycle;Signal;HPM_P1;HPM_P2
2024/01/29 00:02:15;;;;;;;6.53;1.20;;;;;;;6.70;50.19;100700.63;4956359;28;20193;-88
2024/01/29 00:04:40;;;;;;;2.00;1.20;;;;;;;6.83;49.91;100710.03;4939215;29;20195;-88
2024/01/29 00:07:06;;;;;;;4.10;1.10;;;;;;;6.84;49.61;100703.91;4939489;29;20196;-87
2024/01/29 00:09:31;;;;;;;2.27;1.23;;;;;;;6.86;50.23;100698.69;4956014;28;20265;-88
2024/01/29 00:11:57;;;;;;;1.90;1.07;;;;;;;6.92;49.92;100704.69;4939073;29;20596;-87
2024/01/29 00:14:22;;;;;;;2.53;0.97;;;;;;;6.94;49.87;100702.06;4939021;29;20639;-88
2024/01/29 00:16:48;;;;;;;3.50;1.60;;;;;;;6.92;49.24;100709.06;4939540;29;20246;-89
2024/01/29 00:19:14;;;;;;;2.77;1.47;;;;;;;7.08;49.01;100707.94;4939008;29;20263;-88
2024/01/29 00:21:39;;;;;;;3.60;1.30;;;;;;;7.13;48.85;100716.56;4939124;29;20224;-88
2024/01/29 00:24:05;;;;;;;3.50;1.33;;;;;;;7.19;48.62;100713.88;4939191;29;20181;-89
2024/01/29 00:26:30;;;;;;;3.90;1.30;;;;;;;7.20;48.78;100716.50;4955773;29;20702;-88
2024/01/29 00:28:56;;;;;;;2.77;1.23;;;;;;;7.20;48.60;100719.09;4939114;29;20189;-89
2024/01/29 00:31:22;;;;;;;1.93;1.00;;;;;;;7.20;48.69;100720.84;4939009;29;20271;-88
2024/01/29 00:33:48;;;;;;;2.43;1.40;;;;;;;7.14;48.44;100731.34;4956463;28;20502;-88
2024/01/29 00:36:15;;;;;;;1.93;0.90;;;;;;;7.00;48.89;100720.22;4955639;28;20691;-88
2024/01/29 00:38:40;;;;;;;1.83;1.10;;;;;;;6.88;48.81;100713.44;4938915;29;20283;-88
2024/01/29 00:41:06;;;;;;;2.03;1.20;;;;;;;6.86;49.50;100719.53;4938846;29;20268;-88
2024/01/29 00:43:32;;;;;;;2.97;1.40;;;;;;;6.79;49.45;100727.44;4938782;29;20251;-88
2024/01/29 00:45:57;;;;;;;2.30;1.10;;;;;;;6.71;49.67;100731.88;4938500;29;20245;-89
2024/01/29 00:48:24;;;;;;;4.23;1.53;;;;;;;6.70;50.00;100735.38;4938734;29;20181;-88
2024/01/29 00:50:51;;;;;;;3.67;1.00;;;;;;;6.51;50.01;100726.03;4956215;29;20264;-88
2024/01/29 00:53:16;;;;;;;3.47;1.10;;;;;;;6.40;50.88;100729.59;4955912;28;20290;-88
2024/01/29 00:55:48;;;;;;;1.90;1.03;;;;;;;6.48;50.65;100740.81;4938687;29;20300;-88
2024/01/29 00:58:14;;;;;;;2.70;1.17;;;;;;;6.60;50.43;100757.16;4938643;29;20181;-88
2024/01/29 01:00:41;;;;;;;2.37;1.17;;;;;;;6.73;50.31;100761.38;4938613;29;20181;-88
2024/01/29 01:03:07;;;;;;;2.30;1.10;;;;;;;6.72;50.40;100757.06;4955179;28;20208;-88
2024/01/29 01:05:33;;;;;;;2.37;1.20;;;;;;;6.76;50.44;100756.13;4955463;28;20178;-88
2024/01/29 01:08:00;;;;;;;4.00;1.30;;;;;;;6.80;50.17;100747.41;4938222;29;20173;-88
2024/01/29 01:10:26;;;;;;;1.73;1.00;;;;;;;6.78;50.15;100750.91;4955712;28;20180;-88
2024/01/29 01:12:51;;;;;;;2.97;1.17;;;;;;;6.80;49.99;100757.84;4938207;29;20196;-88
2024/01/29 01:15:17;;;;;;;2.90;1.23;;;;;;;6.81;50.74;100743.06;4938448;29;20263;-88
2024/01/29 01:17:42;;;;;;;2.23;1.20;;;;;;;6.75;49.92;100763.97;4938784;29;20177;-89
2024/01/29 01:20:08;;;;;;;2.80;1.10;;;;;;;6.71;50.23;100760.53;4938485;29;20185;-89
2024/01/29 01:22:34;;;;;;;5.27;1.60;;;;;;;6.71;50.03;100757.94;4938027;29;20219;-88
2024/01/29 01:24:59;;;;;;;3.23;1.30;;;;;;;6.74;49.72;100757.03;4938425;29;20682;-88
2024/01/29 01:27:25;;;;;;;2.10;1.20;;;;;;;6.77;49.80;100757.00;4938346;29;20195;-88
2024/01/29 01:29:50;;;;;;;2.90;1.17;;;;;;;6.75;49.79;100764.84;4955232;28;20246;-88
2024/01/29 01:32:15;;;;;;;2.83;1.17;;;;;;;6.74;49.98;100772.66;4938097;29;20268;-88
2024/01/29 01:34:42;;;;;;;2.03;1.00;;;;;;;6.69;49.62;100770.13;4954895;28;20547;-88
2024/01/29 01:37:08;;;;;;;2.67;1.03;;;;;;;6.71;49.30;100764.88;4954920;28;20181;-88
2024/01/29 01:39:33;;;;;;;2.37;1.47;;;;;;;6.66;49.63;100770.16;4938306;29;20177;-88
2024/01/29 01:41:59;;;;;;;2.67;1.00;;;;;;;6.63;49.15;100770.16;4938363;29;20267;-88
2024/01/29 01:44:25;;;;;;;6.63;1.30;;;;;;;6.57;49.26;100765.03;4954855;28;20205;-88
2024/01/29 01:46:50;;;;;;;2.30;1.00;;;;;;;6.52;48.88;100772.03;4937728;29;20264;-88
2024/01/29 01:49:16;;;;;;;3.03;1.40;;;;;;;6.50;49.05;100767.72;4955063;28;20260;-88
2024/01/29 01:51:42;;;;;;;3.30;1.23;;;;;;;6.43;48.85;100781.66;4954893;28;20181;-89
2024/01/29 01:54:08;;;;;;;3.13;1.20;;;;;;;6.37;48.78;100779.97;4938301;28;20181;-88
2024/01/29 01:56:35;;;;;;;4.40;1.60;;;;;;;6.37;48.64;100776.53;4941083;29;20188;-88
2024/01/29 01:59:03;;;;;;;2.70;1.30;;;;;;;6.29;48.90;100779.19;4941422;29;20629;-88
2024/01/29 02:01:30;;;;;;;2.57;0.90;;;;;;;6.18;48.54;100779.28;4958280;28;20211;-88
2024/01/29 02:03:56;;;;;;;3.10;1.40;;;;;;;6.04;48.56;100783.75;4941684;28;20194;-87
2024/01/29 02:06:22;;;;;;;2.50;1.30;;;;;;;5.98;49.01;100782.94;4941344;29;20191;-88
2024/01/29 02:08:47;;;;;;;2.43;1.20;;;;;;;5.92;49.24;100775.19;4941289;29;20599;-87
2024/01/29 02:11:13;;;;;;;4.23;1.43;;;;;;;5.91;49.13;100784.72;4958301;28;20207;-88
2024/01/29 02:13:38;;;;;;;3.00;1.43;;;;;;;5.93;49.25;100785.56;4941400;29;20671;-88
2024/01/29 02:16:04;;;;;;;2.83;1.30;;;;;;;5.95;49.29;100790.75;4941149;29;20253;-87
2024/01/29 02:18:30;;;;;;;2.43;1.13;;;;;;;5.78;49.80;100790.00;4941672;29;20561;-88
2024/01/29 02:20:56;;;;;;;2.47;0.90;;;;;;;5.81;49.52;100782.16;4941401;29;20192;-88
2024/01/29 02:23:21;;;;;;;3.13;1.27;;;;;;;5.73;49.97;100796.97;4941229;29;20345;-88
2024/01/29 02:25:47;;;;;;;3.17;1.40;;;;;;;5.65;49.80;100804.81;4941287;29;20188;-88
2024/01/29 02:28:12;;;;;;;4.47;1.60;;;;;;;5.63;50.60;100790.97;4941281;29;20189;-88
2024/01/29 02:30:38;;;;;;;3.20;1.20;;;;;;;5.62;50.94;100810.03;4940910;29;20254;-88
2024/01/29 02:33:04;;;;;;;1.90;1.10;;;;;;;5.60;50.48;100811.78;4941088;29;20184;-88
2024/01/29 02:35:29;;;;;;;2.40;1.53;;;;;;;5.53;50.59;100810.94;4958063;28;20176;-88
2024/01/29 02:37:55;;;;;;;2.93;1.20;;;;;;;5.58;50.90;100818.75;4940769;29;20206;-88
2024/01/29 02:40:20;;;;;;;3.50;1.63;;;;;;;5.53;50.80;100820.47;4957892;28;20184;-88
2024/01/29 02:42:46;;;;;;;4.03;1.73;;;;;;;5.48;50.57;100815.31;4940895;29;20212;-88
2024/01/29 02:45:11;;;;;;;5.20;1.60;;;;;;;5.40;50.46;100819.69;4940745;29;20291;-88
2024/01/29 02:47:36;;;;;;;2.57;1.13;;;;;;;5.31;50.80;100827.56;4957815;28;20188;-88
2024/01/29 02:50:02;;;;;;;4.07;1.47;;;;;;;5.26;51.20;100818.03;4940873;29;20246;-88
2024/01/29 02:52:28;;;;;;;2.63;1.20;;;;;;;5.21;51.64;100827.59;4940523;29;20184;-88
2024/01/29 02:54:53;;;;;;;3.47;1.40;;;;;;;5.26;50.90;100836.22;4940800;29;20188;-88
2024/01/29 02:57:24;;;;;;;3.17;1.57;;;;;;;5.28;50.82;100840.56;4957375;28;20182;-88
2024/01/29 02:59:53;;;;;;;3.73;1.40;;;;;;;5.29;51.01;100828.44;4957612;29;20164;-88
2024/01/29 03:02:19;;;;;;;6.17;1.47;;;;;;;5.41;50.54;100826.63;4940507;29;20634;-89
2024/01/29 03:04:44;;;;;;;2.80;1.27;;;;;;;5.44;50.03;100833.56;4940552;29;20645;-89
2024/01/29 03:07:10;;;;;;;1.47;0.97;;;;;;;5.38;50.21;100837.03;4939350;29;20188;-88
2024/01/29 03:09:36;;;;;;;4.30;1.60;;;;;;;5.35;49.90;100841.38;4957154;28;20182;-89
2024/01/29 03:12:02;;;;;;;5.50;1.63;;;;;;;5.30;50.15;100844.00;4957038;28;20183;-89
2024/01/29 03:14:27;;;;;;;5.43;2.27;;;;;;;5.30;50.15;100838.81;4956981;28;20182;-88
2024/01/29 03:16:52;;;;;;;1.93;1.20;;;;;;;5.30;50.01;100844.00;4940306;29;20188;-88
2024/01/29 03:19:18;;;;;;;5.53;2.20;;;;;;;5.32;50.07;100838.81;4956938;28;20244;-89
2024/01/29 03:21:44;;;;;;;4.87;1.93;;;;;;;5.26;50.03;100847.50;4939914;29;20215;-89
2024/01/29 03:24:10;;;;;;;7.57;2.50;;;;;;;5.21;50.14;100851.84;4939903;29;20271;-89
2024/01/29 03:26:36;;;;;;;2.97;1.33;;;;;;;5.15;50.21;100853.59;4940174;29;20216;-88
2024/01/29 03:29:01;;;;;;;3.23;1.60;;;;;;;5.09;49.78;100848.41;4940058;29;20182;-89
2024/01/29 03:31:27;;;;;;;2.73;1.40;;;;;;;5.02;50.15;100847.56;4956701;28;20213;-88
2024/01/29 03:33:52;;;;;;;4.53;1.50;;;;;;;4.87;50.93;100843.28;4956608;28;20195;-88
2024/01/29 03:36:18;;;;;;;4.43;2.00;;;;;;;4.84;50.83;100847.63;4940014;29;20219;-89
2024/01/29 03:38:43;;;;;;;8.10;2.30;;;;;;;4.82;51.37;100845.00;4956529;28;20186;-88
2024/01/29 03:41:09;;;;;;;4.13;1.83;;;;;;;4.82;51.01;100841.59;4956571;28;20205;-88
2024/01/29 03:43:34;;;;;;;5.77;2.37;;;;;;;4.83;51.52;100843.28;4956410;28;20213;-88
2024/01/29 03:45:59;;;;;;;4.00;1.73;;;;;;;4.80;51.14;100836.38;4956274;28;20193;-88
2024/01/29 03:48:26;;;;;;;3.50;1.73;;;;;;;4.87;50.69;100840.66;4956570;28;20219;-88
2024/01/29 03:50:51;;;;;;;5.30;2.57;;;;;;;4.89;50.93;100840.69;4939392;29;20189;-88
2024/01/29 03:53:17;;;;;;;3.97;1.40;;;;;;;4.88;50.43;100844.13;4939329;29;20177;-89
2024/01/29 03:55:43;;;;;;;3.70;1.30;;;;;;;4.86;50.65;100846.75;4939295;29;20192;-88
2024/01/29 03:58:08;;;;;;;3.23;1.40;;;;;;;4.74;50.59;100848.53;4939271;29;20181;-88
2024/01/29 04:00:34;;;;;;;4.47;1.40;;;;;;;4.74;51.10;100848.53;4956295;28;20260;-88
2024/01/29 04:03:02;;;;;;;2.47;1.40;;;;;;;4.67;51.30;100839.84;4939148;29;20205;-88
2024/01/29 04:05:28;;;;;;;5.13;1.33;;;;;;;4.70;50.98;100839.84;4939463;29;20268;-88
2024/01/29 04:07:53;;;;;;;3.60;1.40;;;;;;;4.71;50.85;100851.13;4939454;29;20187;-88
2024/01/29 04:10:18;;;;;;;2.20;1.30;;;;;;;4.68;51.10;100853.72;4939361;28;20185;-89
2024/01/29 04:12:44;;;;;;;2.87;1.27;;;;;;;4.71;50.99;100856.31;4955907;28;20189;-88
2024/01/29 04:15:10;;;;;;;4.27;1.50;;;;;;;4.73;50.83;100865.81;4956074;28;20177;-88
2024/01/29 04:17:35;;;;;;;3.17;1.43;;;;;;;4.75;51.10;100869.28;4938597;28;20185;-88
2024/01/29 04:20:05;;;;;;;2.80;1.20;;;;;;;4.80;51.27;100866.66;4955762;28;20187;-88
2024/01/29 04:22:32;;;;;;;5.47;1.57;;;;;;;4.73;50.92;100872.75;4939322;29;20204;-89
2024/01/29 04:24:58;;;;;;;2.23;1.10;;;;;;;4.55;51.06;100875.38;4955714;29;20526;-88
2024/01/29 04:27:24;;;;;;;3.07;1.37;;;;;;;4.65;51.05;100883.16;4939135;29;20185;-88
2024/01/29 04:29:49;;;;;;;4.90;2.00;;;;;;;4.70;51.10;100875.34;4955723;28;20208;-88
2024/01/29 04:32:15;;;;;;;3.40;2.07;;;;;;;4.77;50.31;100872.72;4955818;28;20288;-88
2024/01/29 04:34:40;;;;;;;2.83;1.70;;;;;;;4.79;50.31;100880.53;4956053;28;20272;-88
2024/01/29 04:37:05;;;;;;;2.03;1.47;;;;;;;4.74;50.33;100877.09;4938658;29;20208;-89
2024/01/29 04:39:31;;;;;;;2.70;1.83;;;;;;;4.66;50.59;100879.69;4955495;28;20209;-88
2024/01/29 04:41:56;;;;;;;4.47;2.00;;;;;;;4.48;50.93;100876.25;4955379;28;20214;-88
2024/01/29 04:44:22;;;;;;;5.33;2.23;;;;;;;4.32;51.71;100888.34;4955561;28;20190;-87
2024/01/29 04:46:48;;;;;;;6.40;3.37;;;;;;;4.42;51.30;100889.22;4954850;28;20669;-88
2024/01/29 04:49:13;;;;;;;5.03;2.90;;;;;;;4.49;51.22;100897.00;4955575;29;20185;-88
2024/01/29 04:51:39;;;;;;;7.77;2.90;;;;;;;4.49;51.09;100891.81;4955309;29;20182;-88
2024/01/29 04:54:05;;;;;;;7.60;3.40;;;;;;;4.52;50.92;100886.63;4938316;29;20195;-88
2024/01/29 04:56:30;;;;;;;3.50;1.83;;;;;;;4.54;50.94;100884.88;4955595;29;20265;-89
2024/01/29 04:58:55;;;;;;;5.47;1.90;;;;;;;4.52;50.99;100890.94;4938689;29;20186;-88
2024/01/29 05:01:21;;;;;;;3.93;1.87;;;;;;;4.46;51.20;100889.22;4955132;29;20195;-88
2024/01/29 05:03:47;;;;;;;2.93;1.60;;;;;;;4.43;51.33;100890.97;4938589;29;20674;-88
2024/01/29 05:06:13;;;;;;;4.33;1.23;;;;;;;4.39;51.15;100884.03;4955209;29;20208;-88
2024/01/29 05:08:39;;;;;;;2.13;1.40;;;;;;;4.29;51.82;100891.81;4955096;29;20259;-88
2024/01/29 05:11:04;;;;;;;3.30;1.53;;;;;;;4.30;52.11;100893.53;4938583;29;20176;-88
2024/01/29 05:13:29;;;;;;;3.67;1.50;;;;;;;4.42;51.75;100894.41;4938450;29;20177;-88
2024/01/29 05:15:55;;;;;;;3.40;1.63;;;;;;;4.44;51.61;100890.06;4938396;29;20226;-87
2024/01/29 05:18:20;;;;;;;4.07;1.70;;;;;;;4.50;52.24;100897.88;4938445;29;20184;-88
2024/01/29 05:20:46;;;;;;;3.00;1.67;;;;;;;4.57;52.25;100897.00;4954998;29;20619;-88
2024/01/29 05:23:12;;;;;;;6.87;1.83;;;;;;;4.58;52.08;100899.63;4936011;29;20271;-88
2024/01/29 05:25:38;;;;;;;5.07;2.10;;;;;;;4.60;52.29;100900.47;4937437;29;20674;-89
2024/01/29 05:28:04;;;;;;;5.60;1.50;;;;;;;4.56;51.71;100900.47;4954334;29;20209;-89
2024/01/29 05:30:29;;;;;;;3.27;1.67;;;;;;;4.56;52.10;100898.72;4939789;29;20701;-88
2024/01/29 05:32:55;;;;;;;3.43;1.80;;;;;;;4.61;51.89;100901.34;4958595;29;20182;-88
2024/01/29 05:35:20;;;;;;;5.03;2.13;;;;;;;4.61;51.78;100902.19;4958821;29;20176;-88
2024/01/29 05:37:46;;;;;;;3.13;1.67;;;;;;;4.75;51.88;100904.78;4958749;29;20179;-88
2024/01/29 05:40:11;;;;;;;3.37;1.73;;;;;;;4.86;51.30;100903.03;4958786;29;20268;-86
2024/01/29 05:42:37;;;;;;;2.47;1.20;;;;;;;4.84;51.19;100902.19;4942098;29;20227;-86
2024/01/29 05:45:03;;;;;;;6.87;2.07;;;;;;;4.75;51.11;100905.66;4958563;29;20615;-86
2024/01/29 05:47:29;;;;;;;6.23;2.10;;;;;;;4.70;51.29;100901.31;4958636;29;20198;-86
2024/01/29 05:49:54;;;;;;;2.63;1.27;;;;;;;4.71;51.95;100905.66;4958560;29;20192;-87
2024/01/29 05:52:20;;;;;;;3.23;1.20;;;;;;;4.77;51.59;100909.09;4958813;29;20173;-86
2024/01/29 05:54:45;;;;;;;3.37;1.33;;;;;;;4.89;51.10;100916.91;4941527;29;20185;-87
2024/01/29 05:57:11;;;;;;;2.57;1.37;;;;;;;4.89;51.67;100923.81;4958406;29;20344;-86
2024/01/29 05:59:41;;;;;;;2.93;1.20;;;;;;;5.05;51.00;100919.47;4941800;29;20638;-86
2024/01/29 06:02:06;;;;;;;5.20;2.07;;;;;;;5.19;51.02;100926.34;4958244;29;20199;-86
2024/01/29 06:04:32;;;;;;;2.90;1.40;;;;;;;5.27;50.67;100931.53;4958509;29;20182;-87
2024/01/29 06:06:58;;;;;;;3.30;1.93;;;;;;;5.40;50.36;100949.72;4958662;29;20176;-87
2024/01/29 06:09:23;;;;;;;3.43;1.37;;;;;;;5.46;49.80;100949.69;4958243;29;20240;-86
2024/01/29 06:11:53;;;;;;;5.00;2.57;;;;;;;5.59;50.21;100933.19;4958181;29;20183;-87
2024/01/29 06:14:19;;;;;;;5.50;2.50;;;;;;;5.71;49.54;100936.63;4958615;29;20173;-87
2024/01/29 06:16:44;;;;;;;6.10;1.73;;;;;;;5.67;49.21;100933.16;4958094;29;20188;-87
2024/01/29 06:19:15;;;;;;;5.60;1.90;;;;;;;5.70;49.17;100930.53;4941186;29;20275;-86
2024/01/29 06:21:42;;;;;;;4.83;2.03;;;;;;;5.78;49.37;100926.16;4958324;29;20189;-87
2024/01/29 06:24:08;;;;;;;3.80;1.80;;;;;;;5.90;48.90;100925.25;4958126;29;20249;-87
2024/01/29 06:26:33;;;;;;;2.93;1.70;;;;;;;5.90;49.15;100920.06;4957939;29;20596;-87
2024/01/29 06:28:58;;;;;;;3.60;1.70;;;;;;;5.69;48.97;100921.00;4940930;29;20183;-86
2024/01/29 06:31:24;;;;;;;2.40;1.20;;;;;;;5.65;48.72;100923.63;4940968;29;20187;-87
2024/01/29 06:33:53;;;;;;;4.83;1.50;;;;;;;5.59;49.48;100921.91;4940911;29;20571;-86
2024/01/29 06:36:19;;;;;;;4.07;1.63;;;;;;;5.67;49.12;100922.75;4957779;29;20233;-86
2024/01/29 06:38:44;;;;;;;2.90;1.37;;;;;;;5.63;49.26;100930.56;4957726;29;20644;-86
2024/01/29 06:41:23;;;;;;;2.67;1.40;;;;;;;5.67;48.85;100927.94;4957577;28;20200;-86
2024/01/29 06:43:49;;;;;;;3.77;1.80;;;;;;;5.72;49.54;100940.94;4957813;29;20198;-86
2024/01/29 06:46:15;;;;;;;4.17;1.47;;;;;;;5.72;50.00;100940.94;4957440;29;20221;-86
2024/01/29 06:48:41;;;;;;;3.40;1.60;;;;;;;5.97;49.55;100938.25;4957542;29;20222;-86
2024/01/29 06:51:06;;;;;;;4.57;1.87;;;;;;;6.16;48.62;100944.19;4957513;29;20263;-87
2024/01/29 06:53:34;;;;;;;4.33;1.93;;;;;;;6.09;48.78;100938.19;4957543;29;20222;-86
2024/01/29 06:56:02;;;;;;;3.60;1.50;;;;;;;6.19;48.39;100939.84;4940491;29;20186;-87
2024/01/29 06:58:28;;;;;;;7.07;2.07;;;;;;;6.30;48.29;100941.53;4972372;28;20188;-87
2024/01/29 07:00:54;;;;;;;3.80;1.63;;;;;;;6.31;48.20;100944.13;4957393;29;20251;-87
2024/01/29 07:03:20;;;;;;;4.20;1.50;;;;;;;6.35;47.83;100944.94;4957226;29;20629;-87
2024/01/29 07:05:48;;;;;;;2.40;1.33;;;;;;;6.32;47.10;100948.44;4940336;29;20188;-87
2024/01/29 07:08:13;;;;;;;2.70;1.83;;;;;;;6.30;47.23;100941.53;4957136;29;20273;-87
2024/01/29 07:10:39;;;;;;;6.13;2.53;;;;;;;6.29;47.31;100942.41;4957449;29;20263;-87
2024/01/29 07:13:04;;;;;;;4.97;2.00;;;;;;;6.29;47.40;100935.44;4957113;29;20227;-87
2024/01/29 07:15:29;;;;;;;3.20;1.73;;;;;;;6.32;47.37;100935.41;4957065;29;20192;-86
2024/01/29 07:17:55;;;;;;;2.90;1.10;;;;;;;6.33;47.74;100942.38;4956999;29;20656;-87
2024/01/29 07:20:23;;;;;;;3.00;1.40;;;;;;;6.43;48.22;100943.16;4940086;29;20208;-87
2024/01/29 07:22:49;;;;;;;2.17;1.33;;;;;;;6.59;47.49;100945.66;4956736;29;20208;-87
2024/01/29 07:25:14;;;;;;;3.67;1.50;;;;;;;6.82;47.08;100943.72;4956861;29;20264;-87
2024/01/29 07:27:40;;;;;;;2.60;0.93;;;;;;;7.01;46.53;100954.84;4956815;29;20181;-88
2024/01/29 07:30:09;;;;;;;2.03;1.20;;;;;;;7.03;45.60;100952.22;4939879;29;20185;-88
2024/01/29 07:32:34;;;;;;;3.80;1.43;;;;;;;7.13;45.36;100957.34;4971814;28;20646;-87
2024/01/29 07:35:00;;;;;;;1.90;0.77;;;;;;;7.21;46.30;100957.25;4939809;29;20189;-88
2024/01/29 07:37:29;;;;;;;2.83;1.40;;;;;;;7.38;45.60;100960.56;4956611;29;20174;-88
2024/01/29 07:39:55;;;;;;;2.63;1.43;;;;;;;7.51;46.15;100959.56;4956561;29;20640;-87
2024/01/29 07:42:21;;;;;;;1.63;0.80;;;;;;;7.42;44.65;100959.66;4956442;29;20550;-87
2024/01/29 07:44:50;;;;;;;4.93;1.90;;;;;;;7.21;45.39;100962.47;4939400;29;20185;-87
2024/01/29 07:47:18;;;;;;;3.33;1.20;;;;;;;7.19;46.11;100969.47;4956470;29;20196;-88
2024/01/29 07:49:44;;;;;;;1.77;1.03;;;;;;;6.97;46.14;100965.34;4956353;29;20183;-88
2024/01/29 07:52:09;;;;;;;4.17;1.73;;;;;;;6.84;46.68;100961.09;4956219;28;20181;-87
2024/01/29 07:54:35;;;;;;;5.03;2.10;;;;;;;6.91;46.84;100958.44;4955837;29;20192;-87
2024/01/29 07:57:01;;;;;;;4.73;2.00;;;;;;;7.01;46.86;100954.84;4956266;29;20177;-88
2024/01/29 07:59:26;;;;;;;3.13;1.47;;;;;;;7.07;47.01;100964.38;4939285;29;20184;-87
2024/01/29 08:01:57;;;;;;;1.87;1.30;;;;;;;6.96;47.20;100958.38;4956115;29;20204;-86
2024/01/29 08:04:22;;;;;;;3.10;1.53;;;;;;;6.98;46.43;100964.44;4956171;29;20207;-88
2024/01/29 08:06:48;;;;;;;6.70;2.10;;;;;;;7.06;46.82;100960.88;4956127;29;20177;-87
2024/01/29 08:09:13;;;;;;;4.97;2.73;;;;;;;7.23;46.06;100958.97;4956118;29;20188;-88
2024/01/29 08:11:39;;;;;;;3.77;1.50;;;;;;;7.39;46.18;100957.94;4939142;29;20528;-88
2024/01/29 08:14:04;;;;;;;3.07;1.63;;;;;;;7.31;45.23;100959.75;4939167;29;20232;-88
2024/01/29 08:16:30;;;;;;;4.43;1.80;;;;;;;7.07;45.36;100959.16;4939165;29;20571;-87
2024/01/29 08:18:56;;;;;;;7.70;2.60;;;;;;;7.09;45.62;100967.81;4955897;29;20201;-88
2024/01/29 08:21:22;;;;;;;13.93;4.03;;;;;;;6.85;45.67;100962.81;4970918;28;20227;-87
2024/01/29 08:23:47;;;;;;;4.40;1.47;;;;;;;6.47;47.20;100970.94;4938996;29;20255;-88
2024/01/29 08:26:13;;;;;;;3.97;1.30;;;;;;;6.59;46.83;100976.91;4971375;28;20181;-88
2024/01/29 08:28:38;;;;;;;7.13;2.47;;;;;;;6.73;46.64;100985.47;4955737;29;20173;-87
2024/01/29 08:31:08;;;;;;;4.57;1.90;;;;;;;6.82;46.63;100975.00;4955720;29;20173;-89
2024/01/29 08:33:34;;;;;;;4.17;1.73;;;;;;;6.84;46.75;100982.78;4955952;29;20699;-87
2024/01/29 08:35:59;;;;;;;6.07;2.00;;;;;;;6.94;46.12;100981.00;4955602;29;20267;-87
2024/01/29 08:38:25;;;;;;;5.23;1.83;;;;;;;6.92;46.65;100983.59;4955581;29;20534;-87
2024/01/29 08:40:50;;;;;;;3.90;1.80;;;;;;;7.29;45.96;100979.78;4955550;29;20173;-86
2024/01/29 08:43:16;;;;;;;3.57;1.47;;;;;;;7.43;45.30;100977.91;4938541;29;20212;-88
2024/01/29 08:45:42;;;;;;;5.47;1.90;;;;;;;7.72;45.95;100990.63;4938413;29;20458;-88
2024/01/29 08:48:07;;;;;;;4.07;1.70;;;;;;;7.99;45.19;100987.69;4955985;29;20181;-86
2024/01/29 08:50:36;;;;;;;3.00;1.47;;;;;;;7.85;44.52;100988.75;4938566;29;20189;-87
2024/01/29 08:53:03;;;;;;;6.63;2.20;;;;;;;7.80;44.67;100996.63;4955355;29;20232;-88
2024/01/29 08:55:30;;;;;;;5.00;2.17;;;;;;;7.77;43.80;100987.97;4938416;29;20181;-87
2024/01/29 08:57:56;;;;;;;3.87;1.67;;;;;;;7.68;43.51;100990.69;4955319;29;20627;-88
2024/01/29 09:00:22;;;;;;;3.33;0.93;;;;;;;7.71;42.46;100991.50;4955580;29;20248;-87
2024/01/29 09:02:49;;;;;;;2.90;1.50;;;;;;;7.64;43.64;101000.31;4938320;29;20299;-88
2024/01/29 09:05:16;;;;;;;2.30;1.17;;;;;;;7.48;42.09;100997.84;4955533;28;20181;-87
2024/01/29 09:07:41;;;;;;;2.47;1.20;;;;;;;7.70;43.76;101005.47;4938244;29;20196;-87
2024/01/29 09:10:08;;;;;;;2.97;1.13;;;;;;;7.80;42.04;101011.44;4955449;29;20174;-86
2024/01/29 09:12:33;;;;;;;7.67;1.37;;;;;;;7.84;42.70;101000.06;4955158;29;20706;-86
2024/01/29 09:14:59;;;;;;;4.40;1.90;;;;;;;8.23;41.92;101003.94;4955364;29;20185;-87
2024/01/29 09:17:24;;;;;;;19.67;9.13;;;;;;;8.06;41.00;100998.94;4955316;29;20706;-86
2024/01/29 09:19:51;;;;;;;13.57;6.50;;;;;;;8.13;41.76;100990.13;4955362;29;20240;-87
2024/01/29 09:22:20;;;;;;;33.40;10.23;;;;;;;8.26;42.04;100986.47;4954971;29;20327;-91
2024/01/29 09:24:46;;;;;;;63.83;19.43;;;;;;;8.59;41.33;100974.72;4955232;29;20178;-88
2024/01/29 09:27:12;;;;;;;6.60;3.03;;;;;;;8.64;41.06;100970.25;4955636;29;20173;-88
2024/01/29 09:29:38;;;;;;;9.57;3.47;;;;;;;8.80;41.20;100970.88;4954979;29;20183;-87
2024/01/29 09:32:04;;;;;;;7.00;2.50;;;;;;;8.85;40.64;100967.31;4954938;29;20175;-87
2024/01/29 09:34:30;;;;;;;3.23;1.43;;;;;;;8.91;40.86;100961.97;4954948;29;20558;-88
2024/01/29 09:36:58;;;;;;;2.40;1.30;;;;;;;8.74;40.46;100970.97;4955435;29;20171;-88
2024/01/29 09:39:27;;;;;;;3.77;1.90;;;;;;;8.68;40.52;100969.31;4955155;29;20169;-87
2024/01/29 09:42:01;;;;;;;5.70;2.20;;;;;;;8.98;41.17;100962.72;4937862;29;20205;-88
2024/01/29 09:44:28;;;;;;;3.93;2.17;;;;;;;9.30;39.88;100949.09;4954874;29;20510;-88
2024/01/29 09:46:54;;;;;;;2.43;1.40;;;;;;;9.25;39.21;100952.63;4938427;29;20537;-87
2024/01/29 09:49:23;;;;;;;2.67;1.50;;;;;;;9.13;39.17;100950.25;4955078;29;20241;-88
2024/01/29 09:51:49;;;;;;;3.47;1.67;;;;;;;8.98;39.47;100949.66;4954745;29;20186;-90
2024/01/29 09:54:14;;;;;;;4.20;1.67;;;;;;;9.11;39.48;100944.19;4955083;29;20198;-88
2024/01/29 09:56:39;;;;;;;3.73;1.63;;;;;;;9.19;39.38;100938.81;4955040;29;20605;-88
2024/01/29 09:59:05;;;;;;;3.23;1.60;;;;;;;9.40;39.83;100945.41;4955082;29;20179;-87
2024/01/29 10:01:31;;;;;;;4.37;2.07;;;;;;;9.88;39.02;100940.03;4969793;28;20188;-87
2024/01/29 10:03:56;;;;;;;2.43;1.60;;;;;;;10.22;38.94;100929.72;4954708;29;20184;-88
2024/01/29 10:06:22;;;;;;;3.47;1.67;;;;;;;9.85;36.92;100936.63;4954773;29;20244;-89
2024/01/29 10:08:47;;;;;;;3.30;1.57;;;;;;;10.00;37.48;100928.44;4937768;29;20185;-89
2024/01/29 10:11:13;;;;;;;3.83;1.40;;;;;;;10.07;38.33;100934.41;4955193;29;20269;-88
2024/01/29 10:13:39;;;;;;;3.57;1.67;;;;;;;9.73;37.43;100926.41;4954648;29;20176;-88
2024/01/29 10:16:04;;;;;;;3.73;1.93;;;;;;;9.57;38.04;100927.59;4918657;29;20193;-89
2024/01/29 10:18:32;;;;;;;18.53;9.07;;;;;;;9.72;37.80;100922.06;4942505;28;20645;-88
2024/01/29 10:21:01;;;;;;;15.47;6.43;;;;;;;9.97;38.09;100923.28;4938780;29;20190;-89
2024/01/29 10:23:27;;;;;;;8.60;3.33;;;;;;;9.69;37.53;100930.00;4938811;29;20201;-88
2024/01/29 10:25:56;;;;;;;9.50;3.10;;;;;;;9.46;38.20;100933.03;4938817;29;20189;-87
2024/01/29 10:28:26;;;;;;;4.17;2.20;;;;;;;9.49;37.67;100929.50;4938735;29;20186;-90
2024/01/29 10:30:53;;;;;;;3.93;1.43;;;;;;;9.46;37.54;100922.56;4939059;29;20188;-89
2024/01/29 10:33:22;;;;;;;8.90;3.60;;;;;;;9.46;38.10;100919.13;4938662;29;20194;-89
2024/01/29 10:35:49;;;;;;;4.37;1.80;;;;;;;9.64;37.91;100914.34;4938928;29;20184;-89
2024/01/29 10:38:19;;;;;;;4.60;2.13;;;;;;;9.78;37.61;100916.69;4938431;29;20184;-88
2024/01/29 10:40:56;;;;;;;3.00;1.47;;;;;;;9.75;36.73;100901.91;4939081;29;20527;-91
2024/01/29 10:43:30;;;;;;;2.27;1.17;;;;;;;9.61;36.89;100913.56;4938366;29;20278;-89
2024/01/29 10:45:57;;;;;;;3.80;1.60;;;;;;;9.71;36.61;100900.25;4921644;29;20571;-89
2024/01/29 10:48:26;;;;;;;4.63;1.53;;;;;;;9.76;36.76;100900.16;4938434;29;20208;-88
2024/01/29 10:50:52;;;;;;;5.83;2.03;;;;;;;9.68;37.18;100907.31;4921348;29;20276;-88
2024/01/29 10:53:19;;;;;;;3.10;1.20;;;;;;;9.53;36.53;100899.78;4938397;29;20252;-89
2024/01/29 10:55:54;;;;;;;6.17;3.10;;;;;;;9.59;37.02;100905.72;4938153;29;20185;-89
2024/01/29 10:58:20;;;;;;;4.27;1.80;;;;;;;9.86;36.98;100889.44;4938864;29;20238;-89
2024/01/29 11:00:45;;;;;;;6.27;2.70;;;;;;;10.45;36.52;100885.47;4952945;28;20353;-88
2024/01/29 11:03:29;;;;;;;3.63;1.53;;;;;;;10.66;35.47;100901.59;4938113;29;20667;-92
2024/01/29 11:06:16;;;;;;;1.73;0.83;;;;;;;10.23;35.81;100897.38;4938323;29;20185;-88
2024/01/29 11:08:46;;;;;;;30.73;11.53;;;;;;;9.76;36.22;100908.88;4953992;29;20184;-90
2024/01/29 11:11:12;;;;;;;5.20;2.33;;;;;;;9.92;36.67;100898.94;4920965;29;20264;-88
2024/01/29 11:13:38;;;;;;;5.77;2.30;;;;;;;9.97;36.19;100891.84;4921214;29;20185;-88
2024/01/29 11:16:06;;;;;;;3.90;1.73;;;;;;;9.87;36.20;100885.06;4937796;29;20205;-88
2024/01/29 11:18:36;;;;;;;4.83;2.10;;;;;;;9.99;37.01;100876.94;4921138;29;20185;-89
2024/01/29 11:21:02;;;;;;;5.03;1.97;;;;;;;9.70;36.32;100881.94;4921189;29;20212;-87
2024/01/29 11:23:40;;;;;;;5.37;2.30;;;;;;;9.50;37.27;100884.13;4920796;29;20245;-90
2024/01/29 11:26:11;;;;;;;3.40;1.63;;;;;;;9.68;37.55;100873.25;4920941;29;20178;-88
2024/01/29 11:28:39;;;;;;;22.27;9.03;;;;;;;9.69;36.22;100864.53;4936500;29;20213;-88